Elizabeth — 9V8794 — position and weather

sailwx.info

Track history (hours):
 
Tides and Currents Weather Stations Pressure Air Temp Water Temp Dewpoint Dewpoint Depression Visibility Wind Speed Wind Dir Waves Ship Positions

Elizabeth

Last reported at 2017-Sep-28 14:10 UTC. Time now 2017-Oct-17 04:13 UTC.
Position N 01°14' E 104°03'.
Warning: this ship's position is 18 days out of date.

Length 190 m; draft 12.9 m.

Type: Cargo ship. MMSI: 566073000.

Date/timePositionNaut miles runAvg speedWind from/ knotsBaromVisibWave heightAir tempDewpointWater temp
2017-Sep-28 14:10N 01°14' E 104°03'2 5.9
2017-Sep-28 13:54N 01°14' E 104°02'4 9.3
2017-Sep-28 13:26N 01°14' E 103°58'410.2
2017-Sep-28 13:00N 01°12' E 103°54'510.7
2017-Sep-28 12:30N 01°10' E 103°49'5 9.5
2017-Sep-28 12:00N 01°07' E 103°45'510.2
2017-Sep-28 11:30N 01°04' E 103°41'5 9.1
2017-Sep-28 11:00N 01°04' E 103°36'511.1
2017-Sep-28 10:30N 01°07' E 103°32'611.3
2017-Sep-28 10:00N 01°10' E 103°27'611.4
2017-Sep-28 09:30N 01°13' E 103°22'  
2017-Sep-24 16:08N 05°19' E 099°43'512.4
2017-Sep-24 15:42N 05°24' E 099°42'312.3
2017-Sep-24 15:26N 05°28' E 099°41'  
Track history (hours):
 
Tides and Currents Weather Stations Pressure Air Temp Water Temp Dewpoint Dewpoint Depression Visibility Wind Speed Wind Dir Waves Ship Positions

Elizabeth

Last reported at 2017-Sep-28 14:10 UTC. Time now 2017-Oct-17 04:13 UTC.
Position N 01°14' E 104°03'.
Warning: this ship's position is 18 days out of date.

Length 190 m; draft 12.9 m.

Type: Cargo ship. MMSI: 566073000.

Date/timePositionNaut miles runAvg speedWind from/ knotsBaromVisibWave heightAir tempDewpointWater temp
2017-Sep-28 14:10N 01°14' E 104°03'2 5.9
2017-Sep-28 13:54N 01°14' E 104°02'4 9.3
2017-Sep-28 13:26N 01°14' E 103°58'410.2
2017-Sep-28 13:00N 01°12' E 103°54'510.7
2017-Sep-28 12:30N 01°10' E 103°49'5 9.5
2017-Sep-28 12:00N 01°07' E 103°45'510.2
2017-Sep-28 11:30N 01°04' E 103°41'5 9.1
2017-Sep-28 11:00N 01°04' E 103°36'511.1
2017-Sep-28 10:30N 01°07' E 103°32'611.3
2017-Sep-28 10:00N 01°10' E 103°27'611.4
2017-Sep-28 09:30N 01°13' E 103°22'  
2017-Sep-24 16:08N 05°19' E 099°43'512.4
2017-Sep-24 15:42N 05°24' E 099°42'312.3
2017-Sep-24 15:26N 05°28' E 099°41'  

Dump ship's entire track history